createdAt,value
2023-04-04T00:00:38.975Z,2.67
2023-04-04T00:03:05.924Z,2.60
2023-04-04T00:05:33.403Z,3.33
2023-04-04T00:07:59.775Z,3.60
2023-04-04T00:10:26.268Z,2.20
2023-04-04T00:12:52.849Z,2.40
2023-04-04T00:15:19.381Z,2.43
2023-04-04T00:17:45.818Z,2.27
2023-04-04T00:20:12.441Z,2.33
2023-04-04T00:22:39.011Z,2.67
2023-04-04T00:25:05.973Z,2.33
2023-04-04T00:27:32.447Z,2.53
2023-04-04T00:29:58.890Z,2.10
2023-04-04T00:32:25.716Z,2.60
2023-04-04T00:34:53.651Z,2.10
2023-04-04T00:37:20.504Z,1.90
2023-04-04T00:39:47.701Z,2.80
2023-04-04T00:42:14.201Z,2.00
2023-04-04T00:44:41.042Z,2.00
2023-04-04T00:47:10.499Z,2.23
2023-04-04T00:49:37.761Z,2.47
2023-04-04T00:52:07.165Z,2.57
2023-04-04T00:54:34.908Z,2.10
2023-04-04T00:57:02.509Z,1.90
2023-04-04T00:59:29.222Z,2.40
2023-04-04T01:01:55.801Z,2.20
2023-04-04T01:04:22.373Z,2.43
2023-04-04T01:06:49.864Z,2.83
2023-04-04T01:09:16.613Z,3.07
2023-04-04T01:11:44.470Z,3.30
2023-04-04T01:14:10.994Z,2.70
2023-04-04T01:16:37.823Z,2.43
2023-04-04T01:19:08.697Z,2.40
2023-04-04T01:21:36.148Z,2.63
2023-04-04T01:24:04.125Z,2.17
2023-04-04T01:26:31.420Z,3.03
2023-04-04T01:28:59.003Z,3.00
2023-04-04T01:31:31.827Z,2.63
2023-04-04T01:34:24.147Z,2.80
2023-04-04T01:36:57.943Z,2.33
2023-04-04T01:39:29.094Z,2.80
2023-04-04T01:41:58.371Z,2.57
2023-04-04T01:44:25.348Z,3.00
2023-04-04T01:46:55.381Z,2.57
2023-04-04T01:49:23.432Z,2.77
2023-04-04T01:51:51.803Z,2.77
2023-04-04T01:54:19.170Z,2.40
2023-04-04T01:56:46.499Z,3.33
2023-04-04T01:59:13.049Z,2.60
2023-04-04T02:01:39.681Z,2.93
2023-04-04T02:04:07.176Z,3.00
2023-04-04T02:06:33.888Z,2.70
2023-04-04T02:09:04.225Z,2.80
2023-04-04T02:11:30.614Z,2.93
2023-04-04T02:13:57.284Z,2.67
2023-04-04T02:16:23.890Z,3.03
2023-04-04T02:18:50.343Z,2.90
2023-04-04T02:21:16.868Z,3.00
2023-04-04T02:23:43.274Z,2.77
2023-04-04T02:26:09.741Z,3.20
2023-04-04T02:28:36.346Z,3.03
2023-04-04T02:31:03.084Z,3.63
2023-04-04T02:33:30.359Z,3.37
2023-04-04T02:35:58.711Z,3.63
2023-04-04T02:38:26.171Z,3.60
2023-04-04T02:40:52.845Z,3.13
2023-04-04T02:43:19.270Z,2.97
2023-04-04T02:45:48.383Z,3.27
2023-04-04T02:48:15.680Z,3.63
2023-04-04T02:50:44.472Z,3.17
2023-04-04T02:53:11.278Z,3.30
2023-04-04T02:55:37.720Z,4.07
2023-04-04T02:58:09.277Z,3.40
2023-04-04T03:00:35.699Z,3.92
2023-04-04T03:03:02.167Z,4.30
2023-04-04T03:05:30.150Z,3.50
2023-04-04T03:07:58.447Z,4.00
2023-04-04T03:10:27.024Z,3.83
2023-04-04T03:12:53.487Z,3.70
2023-04-04T03:15:19.872Z,3.97
2023-04-04T03:17:46.821Z,4.40
2023-04-04T03:20:15.087Z,4.77
2023-04-04T03:22:42.261Z,4.30
2023-04-04T03:25:09.530Z,3.07
2023-04-04T03:27:36.341Z,3.63
2023-04-04T03:30:02.963Z,4.10
2023-04-04T03:32:29.368Z,3.37
2023-04-04T03:34:55.909Z,3.93
2023-04-04T03:37:22.921Z,4.33
2023-04-04T03:39:49.366Z,4.40
2023-04-04T03:42:15.839Z,4.53
2023-04-04T03:44:42.826Z,4.47
2023-04-04T03:47:09.544Z,3.90
2023-04-04T03:49:36.193Z,3.60
2023-04-04T03:52:03.219Z,3.67
2023-04-04T03:54:29.721Z,3.80
2023-04-04T03:56:57.508Z,4.27
2023-04-04T03:59:24.168Z,3.90
2023-04-04T04:01:50.901Z,4.10
2023-04-04T04:04:17.330Z,4.10
2023-04-04T04:06:43.970Z,4.07
2023-04-04T04:09:12.227Z,4.67
2023-04-04T04:11:38.822Z,3.37
2023-04-04T04:14:05.431Z,4.07
2023-04-04T04:16:32.959Z,4.03
2023-04-04T04:18:59.684Z,3.80
2023-04-04T04:21:26.194Z,4.40
2023-04-04T04:23:52.648Z,3.80
2023-04-04T04:26:19.040Z,4.30
2023-04-04T04:28:45.896Z,3.50
2023-04-04T04:31:12.433Z,4.27
2023-04-04T04:33:38.889Z,4.60
2023-04-04T04:36:07.253Z,5.77
2023-04-04T04:38:34.007Z,5.30
2023-04-04T04:41:00.858Z,6.03
2023-04-04T04:43:27.732Z,4.23
2023-04-04T04:45:54.287Z,4.47
2023-04-04T04:48:20.956Z,4.43
2023-04-04T04:50:48.118Z,3.57
2023-04-04T04:53:14.851Z,4.00
2023-04-04T04:55:43.121Z,4.50
2023-04-04T04:58:10.768Z,4.83
2023-04-04T05:00:38.083Z,5.50
2023-04-04T05:03:07.893Z,4.43
2023-04-04T05:05:34.811Z,4.13
2023-04-04T05:08:02.801Z,4.93
2023-04-04T05:10:32.333Z,4.57
2023-04-04T05:12:58.752Z,4.37
2023-04-04T05:15:31.494Z,3.70
2023-04-04T05:17:59.302Z,4.47
2023-04-04T05:20:26.036Z,4.60
2023-04-04T05:22:52.548Z,4.50
2023-04-04T05:25:18.956Z,5.10
2023-04-04T05:27:49.198Z,5.20
2023-04-04T05:30:17.041Z,5.17
2023-04-04T05:32:46.723Z,7.03
2023-04-04T05:35:13.173Z,4.80
2023-04-04T05:37:40.555Z,6.23
2023-04-04T05:40:08.170Z,6.00
2023-04-04T05:42:34.609Z,6.13
2023-04-04T05:45:01.414Z,5.20
2023-04-04T05:47:27.855Z,6.57
2023-04-04T05:49:56.373Z,5.13
2023-04-04T05:52:22.787Z,5.60
2023-04-04T05:54:49.235Z,4.97
2023-04-04T05:57:15.696Z,4.87
2023-04-04T05:59:42.204Z,5.23
2023-04-04T06:02:08.652Z,5.40
2023-04-04T06:04:35.105Z,5.67
2023-04-04T06:07:01.848Z,5.77
2023-04-04T06:09:28.576Z,6.23
2023-04-04T06:11:55.091Z,5.80
2023-04-04T06:14:21.657Z,4.73
2023-04-04T06:16:48.373Z,5.93
2023-04-04T06:19:14.800Z,5.97
2023-04-04T06:21:41.184Z,5.67
2023-04-04T06:24:07.821Z,5.57
2023-04-04T06:26:34.516Z,5.00
2023-04-04T06:29:01.134Z,5.10
2023-04-04T06:31:28.216Z,5.23
2023-04-04T06:33:54.694Z,5.85
2023-04-04T06:36:21.404Z,5.47
2023-04-04T06:38:47.885Z,5.60
2023-04-04T06:41:14.373Z,6.30
2023-04-04T06:43:40.753Z,5.72
2023-04-04T06:46:07.205Z,5.00
2023-04-04T06:48:33.614Z,5.25
2023-04-04T06:51:00.221Z,4.90
2023-04-04T06:53:26.788Z,6.22
2023-04-04T06:55:53.531Z,6.35
2023-04-04T06:58:19.986Z,7.47
2023-04-04T07:00:49.674Z,6.25
2023-04-04T07:03:16.889Z,5.43
2023-04-04T07:05:43.885Z,5.82
2023-04-04T07:08:10.803Z,6.20
2023-04-04T07:10:38.088Z,5.97
2023-04-04T07:13:06.078Z,4.63
2023-04-04T07:15:33.618Z,4.93
2023-04-04T07:18:00.136Z,4.60
2023-04-04T07:20:28.449Z,4.80
2023-04-04T07:22:54.934Z,4.00
2023-04-04T07:25:22.496Z,4.60
2023-04-04T07:27:49.016Z,4.70
2023-04-04T07:30:16.244Z,3.65
2023-04-04T07:32:42.686Z,3.65
2023-04-04T07:35:09.703Z,4.10
2023-04-04T07:37:37.758Z,3.53
2023-04-04T07:40:07.864Z,3.50
2023-04-04T07:42:34.327Z,2.80
2023-04-04T07:45:00.751Z,3.80
2023-04-04T07:47:28.129Z,4.05
2023-04-04T07:49:54.543Z,3.50
2023-04-04T07:52:21.479Z,3.75
2023-04-04T07:54:48.341Z,3.72
2023-04-04T07:57:14.782Z,4.35
2023-04-04T07:59:41.355Z,3.80
2023-04-04T08:02:08.121Z,4.78
2023-04-04T08:04:34.622Z,4.05
2023-04-04T08:07:01.325Z,3.22
2023-04-04T08:09:31.414Z,4.10
2023-04-04T08:11:58.023Z,3.05
2023-04-04T08:14:24.484Z,2.95
2023-04-04T08:16:51.544Z,3.33
2023-04-04T08:19:18.170Z,3.08
2023-04-04T08:21:45.479Z,2.50
2023-04-04T08:24:12.883Z,2.92
2023-04-04T08:26:39.335Z,2.65
2023-04-04T08:29:08.873Z,2.35
2023-04-04T08:31:35.453Z,2.60
2023-04-04T08:34:02.554Z,1.60
2023-04-04T08:36:29.303Z,1.92
2023-04-04T08:38:55.717Z,1.80
2023-04-04T08:41:22.848Z,2.55
2023-04-04T08:43:54.630Z,1.88
2023-04-04T08:46:25.692Z,1.67
2023-04-04T08:48:52.799Z,1.77
2023-04-04T08:51:21.778Z,1.98
2023-04-04T08:53:48.619Z,2.35
2023-04-04T08:56:15.036Z,2.13
2023-04-04T08:58:41.956Z,1.63
2023-04-04T09:01:08.685Z,2.42
2023-04-04T09:03:36.912Z,2.60
2023-04-04T09:06:04.798Z,1.40
2023-04-04T09:08:31.455Z,2.03
2023-04-04T09:10:59.056Z,1.67
2023-04-04T09:13:26.856Z,1.83
2023-04-04T09:15:54.933Z,1.88
2023-04-04T09:18:21.390Z,1.52
2023-04-04T09:20:48.675Z,1.95
2023-04-04T09:23:20.501Z,1.90
2023-04-04T09:26:03.361Z,1.92
2023-04-04T09:28:32.593Z,2.67
2023-04-04T09:31:04.946Z,2.20
2023-04-04T09:33:34.184Z,1.90
2023-04-04T09:36:11.603Z,2.15
2023-04-04T09:38:41.022Z,3.35
2023-04-04T09:41:09.757Z,2.42
2023-04-04T09:43:37.301Z,2.38
2023-04-04T09:46:04.229Z,2.22
2023-04-04T09:48:33.307Z,2.47
2023-04-04T09:51:00.559Z,2.03
2023-04-04T09:53:28.198Z,2.50
2023-04-04T09:55:56.107Z,2.30
2023-04-04T09:58:27.779Z,1.90
2023-04-04T10:03:26.557Z,2.63
2023-04-04T10:06:07.581Z,1.80
2023-04-04T10:08:35.425Z,2.10
2023-04-04T10:13:36.171Z,2.10
2023-04-04T10:16:04.196Z,2.35
2023-04-04T10:18:32.904Z,2.67
2023-04-04T10:21:12.299Z,2.35
2023-04-04T10:23:42.503Z,2.50
2023-04-04T10:26:09.258Z,2.67
2023-04-04T10:28:35.951Z,2.83
2023-04-04T10:31:06.805Z,2.80
2023-04-04T10:33:39.639Z,2.65
2023-04-04T10:36:08.959Z,2.42
2023-04-04T10:38:43.480Z,3.30
2023-04-04T10:41:13.762Z,2.40
2023-04-04T10:43:44.010Z,2.30
2023-04-04T10:46:20.645Z,2.70
2023-04-04T10:48:48.518Z,2.95
2023-04-04T10:51:15.906Z,2.83
2023-04-04T10:53:43.111Z,2.45
2023-04-04T10:56:10.580Z,3.22
2023-04-04T10:58:41.666Z,3.28
2023-04-04T11:01:08.662Z,2.50
2023-04-04T11:04:13.331Z,2.90
2023-04-04T11:07:17.635Z,2.53
2023-04-04T11:09:48.411Z,2.85
2023-04-04T11:12:20.383Z,2.77
2023-04-04T11:15:02.499Z,3.65
2023-04-04T11:17:58.392Z,2.38
2023-04-04T11:20:33.448Z,2.20
2023-04-04T11:23:03.880Z,2.60
2023-04-04T11:25:38.749Z,2.72
2023-04-04T11:28:08.149Z,2.63
2023-04-04T11:30:48.086Z,3.05
2023-04-04T11:33:28.864Z,2.72
2023-04-04T11:36:00.009Z,2.65
2023-04-04T11:38:29.404Z,2.17
2023-04-04T11:40:56.328Z,2.28
2023-04-04T11:43:24.798Z,2.83
2023-04-04T11:45:53.408Z,2.42
2023-04-04T11:48:20.411Z,2.58
2023-04-04T11:50:49.911Z,2.72
2023-04-04T11:53:17.468Z,3.67
2023-04-04T11:55:48.011Z,2.33
2023-04-04T11:58:16.693Z,2.20
2023-04-04T12:00:44.178Z,2.53
2023-04-04T12:03:12.569Z,3.05
2023-04-04T12:05:42.034Z,2.70
2023-04-04T12:08:12.795Z,2.33
2023-04-04T12:10:40.931Z,2.38
2023-04-04T12:13:09.778Z,2.97
2023-04-04T12:15:37.245Z,2.83
2023-04-04T12:18:08.671Z,2.00
2023-04-04T12:20:39.462Z,2.25
2023-04-04T12:23:05.931Z,2.60
2023-04-04T12:25:34.101Z,2.78
2023-04-04T12:28:04.312Z,2.38
2023-04-04T12:30:31.760Z,2.10
2023-04-04T12:32:58.921Z,3.17
2023-04-04T12:35:26.037Z,2.33
2023-04-04T12:38:07.389Z,2.35
2023-04-04T12:40:37.407Z,3.60
2023-04-04T12:43:08.787Z,2.72
2023-04-04T12:45:43.160Z,3.60
2023-04-04T12:48:14.970Z,2.58
2023-04-04T12:50:58.585Z,2.95
2023-04-04T12:53:30.089Z,2.42
2023-04-04T12:58:27.668Z,2.72
2023-04-04T13:00:56.229Z,2.85
2023-04-04T13:03:24.607Z,2.92
2023-04-04T13:05:52.402Z,2.00
2023-04-04T13:08:19.231Z,2.78
2023-04-04T13:10:59.250Z,2.33
2023-04-04T13:13:40.666Z,2.33
2023-04-04T13:16:09.682Z,2.85
2023-04-04T13:18:43.167Z,2.80
2023-04-04T13:21:12.126Z,3.38
2023-04-04T13:23:40.605Z,2.75
2023-04-04T13:26:08.873Z,3.20
2023-04-04T13:28:36.402Z,2.80
2023-04-04T13:31:08.244Z,2.40
2023-04-04T13:33:37.834Z,3.13
2023-04-04T13:36:04.678Z,2.53
2023-04-04T13:38:34.301Z,2.45
2023-04-04T13:41:00.938Z,2.60
2023-04-04T13:43:27.882Z,2.97
2023-04-04T13:45:55.452Z,2.50
2023-04-04T13:48:22.296Z,3.10
2023-04-04T13:50:51.541Z,2.75
2023-04-04T13:53:18.728Z,3.65
2023-04-04T13:56:01.341Z,3.20
2023-04-04T13:58:32.277Z,2.67
2023-04-04T14:00:58.753Z,2.03
2023-04-04T14:03:25.269Z,2.60
2023-04-04T14:05:51.742Z,3.50
2023-04-04T14:08:18.233Z,2.33
2023-04-04T14:10:44.723Z,2.28
2023-04-04T14:13:11.285Z,2.72
2023-04-04T14:15:39.746Z,2.60
2023-04-04T14:18:06.491Z,2.65
2023-04-04T14:20:33.980Z,4.30
2023-04-04T14:23:01.724Z,3.08
2023-04-04T14:25:28.209Z,3.75
2023-04-04T14:27:55.023Z,2.70
2023-04-04T14:30:21.476Z,3.28
2023-04-04T14:32:48.020Z,2.90
2023-04-04T14:35:14.392Z,2.67
2023-04-04T14:37:40.869Z,2.70
2023-04-04T14:40:08.035Z,3.40
2023-04-04T14:42:34.673Z,2.70
2023-04-04T14:45:05.027Z,3.63
2023-04-04T14:47:31.569Z,3.10
2023-04-04T14:49:58.967Z,3.05
2023-04-04T14:52:25.418Z,3.30
2023-04-04T14:54:51.865Z,3.08
2023-04-04T14:57:19.705Z,3.30
2023-04-04T14:59:46.681Z,3.33
2023-04-04T15:02:13.052Z,3.35
2023-04-04T15:04:39.525Z,3.28
2023-04-04T15:07:06.015Z,3.75
2023-04-04T15:09:32.493Z,3.95
2023-04-04T15:11:59.157Z,3.30
2023-04-04T15:14:28.378Z,3.28
2023-04-04T15:16:54.912Z,3.35
2023-04-04T15:19:21.302Z,3.17
2023-04-04T15:21:48.701Z,3.78
2023-04-04T15:24:15.462Z,3.33
2023-04-04T15:26:41.914Z,3.17
2023-04-04T15:29:08.355Z,4.45
2023-04-04T15:31:35.086Z,3.63
2023-04-04T15:34:01.655Z,3.75
2023-04-04T15:36:29.120Z,3.92
2023-04-04T15:38:56.152Z,4.15
2023-04-04T15:41:23.184Z,6.22
2023-04-04T15:43:49.692Z,6.30
2023-04-04T15:46:16.295Z,6.00
2023-04-04T15:48:42.812Z,4.30
2023-04-04T15:51:09.225Z,3.38
2023-04-04T15:53:36.312Z,6.57
2023-04-04T15:56:05.492Z,4.80
2023-04-04T15:58:31.891Z,4.30
2023-04-04T16:00:58.293Z,4.05
2023-04-04T16:03:25.706Z,3.33
2023-04-04T16:05:52.406Z,4.07
2023-04-04T16:08:18.899Z,4.43
2023-04-04T16:10:45.383Z,4.13
2023-04-04T16:13:13.396Z,4.22
2023-04-04T16:15:39.982Z,4.18
2023-04-04T16:18:07.143Z,4.15
2023-04-04T16:20:33.706Z,4.60
2023-04-04T16:23:00.714Z,3.20
2023-04-04T16:25:27.358Z,5.68
2023-04-04T16:27:53.797Z,4.30
2023-04-04T16:30:20.367Z,4.50
2023-04-04T16:32:47.219Z,4.32
2023-04-04T16:35:14.206Z,4.43
2023-04-04T16:37:40.762Z,3.97
2023-04-04T16:40:08.349Z,4.75
2023-04-04T16:42:34.801Z,4.72
2023-04-04T16:45:01.385Z,4.35
2023-04-04T16:47:28.329Z,4.20
2023-04-04T16:49:55.065Z,4.63
2023-04-04T16:52:21.534Z,3.97
2023-04-04T16:54:47.932Z,3.78
2023-04-04T16:57:14.328Z,4.88
2023-04-04T16:59:40.725Z,4.28
2023-04-04T17:02:08.261Z,4.32
2023-04-04T17:04:34.854Z,4.13
2023-04-04T17:07:02.551Z,4.72
2023-04-04T17:09:28.945Z,4.93
2023-04-04T17:11:57.510Z,4.43
2023-04-04T17:14:27.608Z,5.32
2023-04-04T17:16:54.312Z,5.00
2023-04-04T17:19:21.069Z,5.13
2023-04-04T17:21:47.639Z,4.95
2023-04-04T17:24:14.737Z,5.00
2023-04-04T17:26:41.646Z,4.93
2023-04-04T17:29:08.053Z,4.80
2023-04-04T17:31:34.707Z,4.50
2023-04-04T17:34:01.213Z,4.97
2023-04-04T17:36:27.708Z,5.10
2023-04-04T17:38:54.173Z,3.97
2023-04-04T17:41:20.765Z,4.00
2023-04-04T17:43:47.217Z,4.25
2023-04-04T17:46:16.810Z,4.38
2023-04-04T17:48:43.421Z,4.65
2023-04-04T17:51:09.931Z,4.40
2023-04-04T17:53:36.492Z,5.05
2023-04-04T17:56:03.158Z,4.20
2023-04-04T17:58:29.546Z,5.07
2023-04-04T18:00:57.486Z,4.65
2023-04-04T18:03:24.286Z,4.30
2023-04-04T18:05:52.596Z,4.40
2023-04-04T18:08:19.174Z,5.28
2023-04-04T18:10:48.145Z,5.75
2023-04-04T18:13:14.671Z,4.13
2023-04-04T18:15:41.592Z,5.28
2023-04-04T18:18:08.380Z,4.97
2023-04-04T18:20:38.073Z,5.53
2023-04-04T18:23:04.624Z,5.38
2023-04-04T18:25:33.254Z,4.88
2023-04-04T18:28:01.567Z,4.65
2023-04-04T18:30:28.060Z,3.92
2023-04-04T18:32:56.461Z,5.25
2023-04-04T18:35:23.364Z,4.65
2023-04-04T18:37:49.829Z,5.40
2023-04-04T18:40:17.575Z,8.50
2023-04-04T18:42:44.754Z,6.57
2023-04-04T18:45:11.552Z,5.55
2023-04-04T18:47:39.944Z,5.53
2023-04-04T18:50:08.221Z,4.80
2023-04-04T18:52:36.248Z,5.15
2023-04-04T18:55:04.369Z,4.25
2023-04-04T18:57:31.425Z,4.85
2023-04-04T18:59:57.848Z,4.85
2023-04-04T19:02:24.248Z,4.90
2023-04-04T19:04:56.412Z,5.18
2023-04-04T19:09:53.831Z,5.68
2023-04-04T19:12:20.325Z,5.05
2023-04-04T19:14:47.120Z,6.13
2023-04-04T19:17:15.524Z,5.35
2023-04-04T19:19:43.280Z,5.55
2023-04-04T19:22:10.002Z,6.03
2023-04-04T19:24:36.493Z,7.07
2023-04-04T19:27:03.255Z,5.03
2023-04-04T19:29:33.613Z,3.97
2023-04-04T19:32:03.603Z,6.50
2023-04-04T19:34:30.923Z,5.25
2023-04-04T19:36:57.396Z,5.00
2023-04-04T19:39:30.841Z,5.57
2023-04-04T19:41:57.823Z,5.05
2023-04-04T19:44:24.385Z,5.40
2023-04-04T19:46:50.944Z,5.35
2023-04-04T19:49:17.934Z,4.65
2023-04-04T19:51:50.218Z,4.93
2023-04-04T19:54:22.320Z,5.72
2023-04-04T19:59:44.228Z,5.57
2023-04-04T20:02:33.126Z,5.40
2023-04-04T20:05:00.180Z,4.75
2023-04-04T20:07:32.295Z,5.35
2023-04-04T20:10:01.939Z,4.97
2023-04-04T20:12:28.837Z,5.57
2023-04-04T20:15:01.437Z,5.75
2023-04-04T20:17:28.139Z,5.90
2023-04-04T20:19:54.632Z,5.40
2023-04-04T20:22:23.051Z,6.25
2023-04-04T20:24:49.656Z,5.05
2023-04-04T20:27:23.928Z,5.70
2023-04-04T20:29:52.894Z,6.30
2023-04-04T20:32:19.366Z,5.40
2023-04-04T20:34:50.384Z,5.28
2023-04-04T20:37:22.643Z,6.18
2023-04-04T20:39:53.551Z,4.90
2023-04-04T20:42:26.121Z,5.00
2023-04-04T20:44:54.102Z,4.68
2023-04-04T20:47:46.309Z,4.75
2023-04-04T20:50:20.379Z,4.57
2023-04-04T20:52:53.389Z,4.90
2023-04-04T20:55:22.258Z,4.95
2023-04-04T20:57:50.733Z,6.07
2023-04-04T21:00:29.498Z,5.50
2023-04-04T21:02:58.055Z,5.32
2023-04-04T21:05:35.624Z,6.38
2023-04-04T21:08:03.195Z,5.00
2023-04-04T21:10:29.570Z,4.28
2023-04-04T21:13:03.574Z,4.78
2023-04-04T21:15:33.543Z,4.10
2023-04-04T21:18:08.348Z,4.07
2023-04-04T21:20:46.877Z,5.18
2023-04-04T21:23:25.931Z,4.72
2023-04-04T21:26:02.694Z,4.75
2023-04-04T21:28:38.695Z,4.50
2023-04-04T21:31:13.713Z,4.88
2023-04-04T21:33:47.660Z,4.90
2023-04-04T21:36:20.905Z,4.97
2023-04-04T21:38:47.615Z,4.15
2023-04-04T21:41:24.875Z,4.60
2023-04-04T21:43:52.332Z,4.20
2023-04-04T21:46:19.122Z,5.40
2023-04-04T21:48:45.654Z,5.50
2023-04-04T21:51:12.038Z,3.88
2023-04-04T21:53:38.446Z,4.28
2023-04-04T21:56:05.178Z,4.65
2023-04-04T21:58:31.566Z,5.00
2023-04-04T22:00:57.998Z,4.25
2023-04-04T22:03:24.465Z,3.97
2023-04-04T22:05:51.162Z,4.63
2023-04-04T22:08:17.598Z,5.53
2023-04-04T22:10:46.334Z,5.35
2023-04-04T22:13:14.829Z,4.68
2023-04-04T22:15:46.991Z,5.00
2023-04-04T22:18:17.629Z,4.32
2023-04-04T22:20:46.699Z,4.57
2023-04-04T22:23:15.467Z,5.15
2023-04-04T22:25:42.298Z,4.47
2023-04-04T22:28:09.456Z,4.78
2023-04-04T22:30:39.020Z,4.30
2023-04-04T22:33:06.113Z,3.70
2023-04-04T22:35:32.992Z,4.22
2023-04-04T22:38:00.802Z,4.68
2023-04-04T22:40:28.509Z,5.25
2023-04-04T22:42:55.530Z,4.65
2023-04-04T22:45:22.969Z,4.88
2023-04-04T22:47:49.735Z,4.53
2023-04-04T22:50:25.410Z,4.07
2023-04-04T22:52:54.570Z,4.63
2023-04-04T22:55:24.326Z,4.55
2023-04-04T22:57:51.170Z,4.40
2023-04-04T23:00:17.842Z,4.90
2023-04-04T23:02:46.118Z,4.60
2023-04-04T23:05:14.649Z,5.15
2023-04-04T23:07:41.865Z,4.50
2023-04-04T23:10:11.332Z,4.80
2023-04-04T23:12:38.771Z,5.13
2023-04-04T23:15:09.556Z,4.70
2023-04-04T23:17:36.480Z,5.50
2023-04-04T23:20:09.994Z,4.65
2023-04-04T23:22:37.469Z,5.15
2023-04-04T23:25:06.458Z,5.32
2023-04-04T23:27:35.270Z,5.10
2023-04-04T23:30:04.797Z,4.30
2023-04-04T23:32:32.193Z,5.00
2023-04-04T23:34:58.649Z,4.70
2023-04-04T23:37:25.440Z,4.72
2023-04-04T23:39:51.943Z,4.75
2023-04-04T23:42:18.425Z,5.13
2023-04-04T23:44:45.675Z,4.95
2023-04-04T23:47:12.559Z,5.10
2023-04-04T23:49:39.059Z,5.05
2023-04-04T23:52:06.113Z,5.53
2023-04-04T23:54:32.542Z,4.93
2023-04-04T23:56:58.935Z,5.37
2023-04-04T23:59:25.850Z,5.33
